Time;durP1;ratioP1;P1;durP2;ratioP2;P2;SDS_P1;SDS_P2;PMS_P1;PMS_P2;Temp;Humidity;BMP_temperature;BMP_pressure;BME280_temperature;BME280_humidity;BME280_pressure;Samples;Min_cycle;Max_cycle;Signal;HPM_P1;HPM_P2
2024/03/04 00:00:48;;;;;;;75.70;71.13;;;7.40;99.90;;;;;;5050453;28;20037;-76
2024/03/04 00:03:14;;;;;;;105.65;99.68;;;7.30;99.90;;;;;;5054232;28;20032;-76
2024/03/04 00:05:40;;;;;;;119.43;112.60;;;7.30;99.90;;;;;;5048730;28;20047;-76
2024/03/04 00:08:07;;;;;;;57.77;54.43;;;7.20;99.90;;;;;;5041578;28;20395;-76
2024/03/04 00:10:33;;;;;;;57.23;53.77;;;7.20;99.90;;;;;;5047732;28;20041;-76
2024/03/04 00:12:59;;;;;;;99.23;93.43;;;7.20;99.90;;;;;;5049201;28;20407;-76
2024/03/04 00:15:25;;;;;;;53.87;50.37;;;7.10;99.90;;;;;;5041391;28;20034;-76
2024/03/04 00:17:51;;;;;;;70.20;66.20;;;7.10;99.90;;;;;;5035950;28;20025;-76
2024/03/04 00:20:21;;;;;;;103.17;96.70;;;7.10;99.90;;;;;;5047658;28;20033;-76
2024/03/04 00:22:47;;;;;;;118.87;112.23;;;7.10;99.90;;;;;;5055169;28;20037;-76
2024/03/04 00:25:16;;;;;;;122.20;115.30;;;7.00;99.90;;;;;;5048669;28;20040;-76
2024/03/04 00:27:43;;;;;;;94.53;88.90;;;7.00;99.90;;;;;;5041589;28;20025;-76
2024/03/04 00:30:10;;;;;;;75.13;70.33;;;7.00;99.90;;;;;;5034656;28;20484;-76
2024/03/04 00:32:36;;;;;;;94.93;89.13;;;6.90;99.90;;;;;;5051994;28;20049;-73
2024/03/04 00:35:05;;;;;;;80.27;74.97;;;6.80;99.90;;;;;;5043812;28;20033;-73
2024/03/04 00:37:32;;;;;;;113.93;106.93;;;6.80;99.90;;;;;;5048405;28;20045;-76
2024/03/04 00:39:58;;;;;;;161.23;152.07;;;6.80;99.90;;;;;;5045821;28;20387;-76
2024/03/04 00:42:25;;;;;;;166.60;157.50;;;6.80;99.90;;;;;;5048281;28;20479;-76
2024/03/04 00:44:52;;;;;;;76.43;71.67;;;6.70;99.90;;;;;;5042937;28;20471;-76
2024/03/04 00:47:18;;;;;;;100.50;94.50;;;6.70;99.90;;;;;;5046178;28;20430;-76
2024/03/04 00:49:47;;;;;;;227.47;214.00;;;6.60;99.90;;;;;;5046150;28;20026;-76
2024/03/04 00:52:14;;;;;;;336.80;317.17;;;6.60;99.90;;;;;;5039535;28;20403;-76
2024/03/04 00:54:41;;;;;;;184.33;173.93;;;6.70;99.90;;;;;;5047993;28;20029;-76
2024/03/04 00:57:07;;;;;;;193.73;181.93;;;6.70;99.90;;;;;;5043333;28;20037;-76
2024/03/04 00:59:34;;;;;;;88.30;83.07;;;6.70;99.90;;;;;;5035106;28;20030;-75
2024/03/04 01:02:00;;;;;;;111.13;104.63;;;6.70;99.90;;;;;;5044215;28;20511;-76
2024/03/04 01:04:26;;;;;;;96.73;90.53;;;6.60;99.90;;;;;;5054267;28;20036;-76
2024/03/04 01:06:56;;;;;;;94.50;88.73;;;6.50;99.90;;;;;;5044754;28;20034;-76
2024/03/04 01:09:22;;;;;;;92.70;86.87;;;6.50;99.90;;;;;;5038279;28;20028;-76
2024/03/04 01:11:48;;;;;;;87.37;81.80;;;6.50;99.90;;;;;;5046044;28;20045;-76
2024/03/04 01:14:14;;;;;;;102.10;95.73;;;6.60;99.90;;;;;;5036165;28;20044;-75
2024/03/04 01:16:43;;;;;;;101.47;95.30;;;6.60;99.90;;;;;;5042679;28;20061;-76
2024/03/04 01:19:09;;;;;;;87.40;82.00;;;6.60;99.90;;;;;;5052351;28;20029;-76
2024/03/04 01:21:35;;;;;;;70.60;65.77;;;6.60;99.90;;;;;;5043462;28;20040;-76
2024/03/04 01:24:02;;;;;;;75.20;70.77;;;6.60;99.90;;;;;;5049836;28;20044;-76
2024/03/04 01:26:28;;;;;;;77.43;72.63;;;6.50;99.90;;;;;;5044286;28;20037;-76
2024/03/04 01:28:54;;;;;;;79.23;74.30;;;6.50;99.90;;;;;;5048626;28;20041;-76
2024/03/04 01:31:21;;;;;;;86.60;81.33;;;6.50;99.90;;;;;;5049980;28;20487;-76
2024/03/04 01:33:50;;;;;;;79.80;75.13;;;6.50;99.90;;;;;;5052217;28;20028;-76
2024/03/04 01:36:17;;;;;;;79.90;74.63;;;6.50;99.90;;;;;;5044346;28;20482;-76
2024/03/04 01:38:44;;;;;;;81.87;76.90;;;6.50;99.90;;;;;;5039750;28;20041;-76
2024/03/04 01:41:10;;;;;;;86.40;81.10;;;6.50;99.90;;;;;;5041583;28;20041;-76
2024/03/04 01:43:36;;;;;;;115.47;108.87;;;6.50;99.90;;;;;;5031877;28;20045;-76
2024/03/04 01:46:02;;;;;;;125.83;118.80;;;6.40;99.90;;;;;;5036626;28;20413;-76
2024/03/04 01:48:29;;;;;;;98.07;92.30;;;6.40;99.90;;;;;;5035961;28;20030;-76
2024/03/04 01:50:55;;;;;;;90.57;85.20;;;6.40;99.90;;;;;;5030283;28;20407;-76
2024/03/04 01:53:22;;;;;;;116.17;109.33;;;6.40;99.90;;;;;;5033168;28;20045;-76
2024/03/04 01:56:06;;;;;;;153.10;143.93;;;6.30;99.90;;;;;;5032652;28;20036;-76
2024/03/04 01:58:33;;;;;;;177.97;168.20;;;6.30;99.90;;;;;;5035239;28;20042;-76
2024/03/04 02:01:01;;;;;;;146.97;138.57;;;6.30;99.90;;;;;;5039900;28;20044;-75
2024/03/04 02:03:28;;;;;;;136.20;128.37;;;6.30;99.90;;;;;;5045839;28;20028;-76
2024/03/04 02:05:54;;;;;;;147.33;138.93;;;6.30;99.90;;;;;;5033334;28;20032;-76
2024/03/04 02:08:20;;;;;;;181.90;171.50;;;6.30;99.90;;;;;;5040561;28;20483;-76
2024/03/04 02:10:48;;;;;;;147.87;139.27;;;6.20;99.90;;;;;;5051686;28;20037;-76
2024/03/04 02:13:14;;;;;;;117.20;110.37;;;6.00;99.90;;;;;;5052108;28;20037;-76
2024/03/04 02:15:41;;;;;;;110.73;104.47;;;6.00;99.90;;;;;;5048031;28;20038;-76
2024/03/04 02:18:07;;;;;;;91.93;86.37;;;6.10;99.90;;;;;;5032216;28;20033;-76
2024/03/04 02:20:41;;;;;;;132.33;124.30;;;6.10;99.90;;;;;;5030622;28;20392;-76
2024/03/04 02:23:09;;;;;;;118.50;110.90;;;6.10;99.90;;;;;;5031663;28;20391;-76
2024/03/04 02:25:54;;;;;;;171.87;162.17;;;6.00;99.90;;;;;;5037029;28;20439;-76
2024/03/04 02:28:22;;;;;;;143.73;135.17;;;6.00;99.90;;;;;;5053113;28;20384;-76
2024/03/04 02:30:48;;;;;;;193.47;182.07;;;6.00;99.90;;;;;;5044517;28;20042;-76
2024/03/04 02:33:14;;;;;;;239.27;225.73;;;6.00;99.90;;;;;;5033042;28;20046;-76
2024/03/04 02:35:40;;;;;;;210.70;198.70;;;6.00;99.90;;;;;;5035639;28;20052;-75
2024/03/04 02:38:07;;;;;;;119.57;112.57;;;5.90;99.90;;;;;;5038536;28;20049;-75
2024/03/04 02:40:33;;;;;;;95.53;89.97;;;5.90;99.90;;;;;;5031467;28;20048;-75
2024/03/04 02:42:59;;;;;;;136.77;128.53;;;5.70;99.90;;;;;;5040530;28;20056;-75
2024/03/04 02:45:25;;;;;;;156.57;147.13;;;5.80;99.90;;;;;;5051753;28;20405;-75
2024/03/04 02:47:51;;;;;;;177.53;167.13;;;5.80;99.90;;;;;;5051141;28;20041;-75
2024/03/04 02:50:17;;;;;;;185.60;174.90;;;5.80;99.90;;;;;;5051539;28;20036;-75
2024/03/04 02:52:46;;;;;;;124.13;116.67;;;5.80;99.90;;;;;;5049638;28;20416;-75
2024/03/04 02:55:12;;;;;;;159.63;150.30;;;5.70;99.90;;;;;;5052185;28;20029;-75
2024/03/04 02:57:39;;;;;;;124.77;117.90;;;5.70;99.90;;;;;;5052167;28;20040;-75
2024/03/04 03:00:06;;;;;;;93.17;87.50;;;5.60;99.90;;;;;;5044006;28;20029;-75
2024/03/04 03:02:32;;;;;;;138.23;130.30;;;5.50;99.90;;;;;;5039309;28;20040;-75
2024/03/04 03:04:58;;;;;;;177.37;167.33;;;5.60;99.90;;;;;;5040151;28;20059;-75
2024/03/04 03:07:24;;;;;;;149.13;140.50;;;5.60;99.90;;;;;;5039135;28;20021;-75
2024/03/04 03:09:50;;;;;;;122.23;115.27;;;5.60;99.90;;;;;;5041624;28;20399;-75
2024/03/04 03:12:17;;;;;;;161.83;152.53;;;5.50;99.90;;;;;;5040847;28;20041;-75
2024/03/04 03:14:43;;;;;;;175.60;165.33;;;5.60;99.90;;;;;;5046837;28;20467;-75
2024/03/04 03:17:09;;;;;;;141.93;133.70;;;5.60;99.90;;;;;;5041264;28;20045;-75
2024/03/04 03:19:36;;;;;;;122.40;115.40;;;5.50;99.90;;;;;;5039290;28;20032;-74
2024/03/04 03:22:02;;;;;;;125.50;118.50;;;5.50;99.90;;;;;;5046222;28;20040;-75
2024/03/04 03:24:28;;;;;;;101.23;95.30;;;5.50;99.90;;;;;;5042557;28;20386;-74
2024/03/04 03:26:54;;;;;;;106.00;99.23;;;5.30;99.90;;;;;;5035655;28;20029;-74
2024/03/04 03:29:21;;;;;;;100.93;94.77;;;5.30;99.90;;;;;;5036023;28;20893;-75
2024/03/04 03:31:48;;;;;;;89.77;84.70;;;5.30;99.90;;;;;;5046770;28;20037;-75
2024/03/04 03:34:14;;;;;;;126.07;118.63;;;5.30;99.90;;;;;;5050090;28;20033;-75
2024/03/04 03:36:41;;;;;;;114.73;108.20;;;5.30;99.90;;;;;;5042861;28;20459;-75
2024/03/04 03:39:10;;;;;;;119.57;112.27;;;5.30;99.90;;;;;;5045315;28;20037;-75
2024/03/04 03:41:39;;;;;;;94.63;89.10;;;5.10;99.90;;;;;;5043209;28;20475;-75
2024/03/04 03:44:05;;;;;;;78.40;73.53;;;5.20;99.90;;;;;;5051657;28;20045;-75
2024/03/04 03:46:31;;;;;;;89.13;84.00;;;5.20;99.90;;;;;;5049920;28;20045;-75
2024/03/04 03:48:57;;;;;;;98.27;92.43;;;5.20;99.90;;;;;;5051880;28;20037;-75
2024/03/04 03:51:23;;;;;;;83.67;78.57;;;5.20;99.90;;;;;;5042232;28;20041;-75
2024/03/04 03:53:49;;;;;;;94.27;88.70;;;5.20;99.90;;;;;;5030923;28;20045;-75
2024/03/04 03:56:17;;;;;;;117.17;109.93;;;5.20;99.90;;;;;;5040152;28;20040;-75
2024/03/04 03:58:43;;;;;;;83.03;78.10;;;5.20;99.90;;;;;;5051898;28;20036;-75
2024/03/04 04:01:10;;;;;;;75.30;70.63;;;5.10;99.90;;;;;;5050690;28;20483;-75
2024/03/04 04:03:36;;;;;;;78.87;73.80;;;5.00;99.90;;;;;;5051623;28;20494;-75
2024/03/04 04:06:03;;;;;;;81.73;76.77;;;4.90;99.90;;;;;;5050138;28;20033;-75
2024/03/04 04:08:29;;;;;;;81.90;76.93;;;4.90;99.90;;;;;;5039749;28;20040;-75
2024/03/04 04:10:55;;;;;;;96.43;90.43;;;4.90;99.90;;;;;;5040913;28;20040;-75
2024/03/04 04:13:22;;;;;;;66.67;62.40;;;5.00;99.90;;;;;;5051372;28;20045;-75
2024/03/04 04:15:49;;;;;;;130.30;123.03;;;5.00;99.90;;;;;;5047431;28;20040;-75
2024/03/04 04:18:16;;;;;;;76.83;71.60;;;5.00;99.90;;;;;;5036548;28;20045;-75
2024/03/04 04:20:42;;;;;;;108.37;101.63;;;5.00;99.90;;;;;;5035824;28;20029;-75
2024/03/04 04:23:08;;;;;;;69.53;65.13;;;5.00;99.90;;;;;;5049157;28;20045;-75
2024/03/04 04:25:35;;;;;;;75.53;70.63;;;5.00;99.90;;;;;;5049610;28;20477;-74
2024/03/04 04:28:02;;;;;;;77.93;72.97;;;5.00;99.90;;;;;;5035010;28;20053;-75
2024/03/04 04:30:28;;;;;;;76.77;71.53;;;5.00;99.90;;;;;;5033694;28;20049;-75
2024/03/04 04:32:55;;;;;;;69.77;65.23;;;5.00;99.90;;;;;;5031011;28;20047;-75
2024/03/04 04:35:21;;;;;;;73.43;68.50;;;5.00;99.90;;;;;;5037077;28;20042;-75
2024/03/04 04:37:47;;;;;;;97.50;91.40;;;4.90;99.90;;;;;;5034090;28;20040;-75
2024/03/04 04:40:19;;;;;;;84.30;78.83;;;4.80;99.90;;;;;;5043346;28;20032;-74
2024/03/04 04:42:45;;;;;;;116.63;109.37;;;4.60;99.90;;;;;;5048618;28;20391;-75
2024/03/04 04:45:11;;;;;;;64.70;60.67;;;4.70;99.90;;;;;;5044970;28;20388;-75
2024/03/04 04:47:37;;;;;;;70.73;66.13;;;4.70;99.90;;;;;;5046977;28;20084;-75
2024/03/04 04:50:04;;;;;;;60.50;56.60;;;4.70;99.90;;;;;;5050567;28;20052;-75
2024/03/04 04:52:30;;;;;;;49.43;46.33;;;4.70;99.90;;;;;;5035150;28;20520;-75
2024/03/04 04:54:57;;;;;;;121.43;114.17;;;4.70;99.90;;;;;;5047989;28;20415;-75
2024/03/04 04:57:23;;;;;;;86.77;81.63;;;4.70;99.90;;;;;;5042837;28;20025;-75
2024/03/04 04:59:49;;;;;;;73.10;68.20;;;4.70;99.90;;;;;;5038150;28;20033;-75
2024/03/04 05:02:15;;;;;;;77.83;72.70;;;4.70;99.90;;;;;;5044998;28;20033;-75
2024/03/04 05:04:44;;;;;;;120.07;113.27;;;4.70;99.90;;;;;;5048432;28;20399;-75
2024/03/04 05:07:10;;;;;;;111.10;104.27;;;4.70;99.90;;;;;;5048703;28;20045;-75
2024/03/04 05:09:36;;;;;;;103.97;97.97;;;4.70;99.90;;;;;;5051946;28;20041;-75
2024/03/04 05:12:02;;;;;;;78.17;73.20;;;4.70;99.90;;;;;;5053046;28;20399;-75
2024/03/04 05:14:28;;;;;;;75.10;69.83;;;4.60;99.90;;;;;;5050167;28;20040;-75
2024/03/04 05:16:57;;;;;;;73.37;69.10;;;4.70;99.90;;;;;;5048368;28;20505;-75
2024/03/04 05:19:27;;;;;;;68.87;64.50;;;4.60;99.90;;;;;;5054679;28;20390;-75
2024/03/04 05:21:53;;;;;;;66.67;62.37;;;4.10;99.90;;;;;;5054428;28;20067;-75
2024/03/04 05:24:19;;;;;;;83.67;78.73;;;3.80;99.90;;;;;;5050350;28;20036;-75
2024/03/04 05:26:45;;;;;;;65.93;61.70;;;3.90;99.90;;;;;;5039085;28;20025;-75
2024/03/04 05:29:11;;;;;;;61.37;57.43;;;3.90;99.90;;;;;;5035203;28;20033;-75
2024/03/04 05:31:38;;;;;;;59.57;55.90;;;4.00;99.90;;;;;;5045617;28;20041;-74
2024/03/04 05:34:06;;;;;;;58.60;54.80;;;4.10;99.90;;;;;;5052114;28;20032;-75
2024/03/04 05:36:32;;;;;;;52.13;48.23;;;4.00;99.90;;;;;;5053559;28;20037;-75
2024/03/04 05:38:58;;;;;;;59.47;55.17;;;3.80;99.90;;;;;;5053777;28;20040;-75
2024/03/04 05:41:24;;;;;;;65.33;61.30;;;3.70;99.90;;;;;;5054038;28;20475;-75
2024/03/04 05:43:50;;;;;;;67.97;63.50;;;3.80;99.90;;;;;;5053780;28;20053;-75
2024/03/04 05:46:16;;;;;;;73.33;68.27;;;3.90;99.90;;;;;;5052707;28;20033;-74
2024/03/04 05:48:45;;;;;;;73.00;68.27;;;3.90;99.90;;;;;;5049231;28;20037;-75
2024/03/04 05:51:11;;;;;;;71.00;66.57;;;3.70;99.90;;;;;;5043450;28;20040;-75
2024/03/04 05:53:37;;;;;;;54.63;50.73;;;3.80;99.90;;;;;;5053785;28;20052;-75
2024/03/04 05:56:04;;;;;;;67.20;63.30;;;3.80;99.90;;;;;;5035579;28;20041;-76
2024/03/04 05:58:30;;;;;;;64.73;60.63;;;4.00;99.90;;;;;;5053482;28;20494;-76
2024/03/04 06:00:56;;;;;;;59.53;55.87;;;4.10;99.90;;;;;;5052869;28;20037;-74
2024/03/04 06:03:22;;;;;;;85.80;80.80;;;4.10;99.90;;;;;;5048454;28;20048;-75
2024/03/04 06:05:48;;;;;;;84.77;78.57;;;4.00;99.90;;;;;;5034239;28;20483;-75
2024/03/04 06:08:15;;;;;;;105.83;99.70;;;4.00;99.90;;;;;;5031984;28;20037;-75
2024/03/04 06:10:42;;;;;;;64.27;60.33;;;3.90;99.90;;;;;;5037351;28;20067;-75
2024/03/04 06:13:09;;;;;;;73.90;69.27;;;3.70;99.90;;;;;;5053417;28;20068;-76
2024/03/04 06:15:35;;;;;;;72.50;68.13;;;3.60;99.90;;;;;;5052950;28;20399;-75
2024/03/04 06:18:01;;;;;;;94.80;89.10;;;3.50;99.90;;;;;;5052230;28;20463;-75
2024/03/04 06:20:27;;;;;;;75.70;71.10;;;3.60;99.90;;;;;;5053169;28;20029;-76
2024/03/04 06:22:53;;;;;;;67.47;63.03;;;3.70;99.90;;;;;;5053038;28;20029;-74
2024/03/04 06:25:19;;;;;;;53.73;50.13;;;3.70;99.90;;;;;;5053143;28;20036;-75
2024/03/04 06:27:45;;;;;;;56.43;52.83;;;3.70;99.90;;;;;;5053280;28;20029;-75
2024/03/04 06:30:13;;;;;;;51.83;48.07;;;3.70;99.90;;;;;;5052504;28;20037;-75
2024/03/04 06:32:39;;;;;;;56.27;52.50;;;3.70;99.90;;;;;;5052009;28;20052;-76
2024/03/04 06:35:06;;;;;;;61.47;57.53;;;3.70;99.90;;;;;;5052681;28;20383;-75
2024/03/04 06:37:32;;;;;;;59.53;55.67;;;3.60;99.90;;;;;;5052875;28;20041;-75
2024/03/04 06:39:58;;;;;;;67.30;63.27;;;3.60;99.90;;;;;;5053082;28;20029;-75
2024/03/04 06:42:24;;;;;;;72.57;67.23;;;3.60;99.90;;;;;;5051364;28;20392;-75
2024/03/04 06:44:50;;;;;;;60.53;56.40;;;3.60;99.90;;;;;;5035013;28;20049;-75
2024/03/04 06:47:16;;;;;;;63.30;59.17;;;3.70;99.90;;;;;;5050865;28;20495;-75
2024/03/04 06:49:42;;;;;;;58.83;54.97;;;3.80;99.90;;;;;;5052417;28;20028;-75
2024/03/04 06:52:08;;;;;;;58.70;54.03;;;3.80;99.90;;;;;;5052562;28;20040;-75
2024/03/04 06:54:35;;;;;;;63.57;59.33;;;3.70;99.90;;;;;;5052731;28;20041;-75
2024/03/04 06:57:01;;;;;;;61.10;57.13;;;3.60;99.90;;;;;;5052505;28;20025;-75
2024/03/04 06:59:27;;;;;;;67.90;63.50;;;3.40;99.90;;;;;;5034675;28;20041;-75
2024/03/04 07:01:53;;;;;;;64.03;59.87;;;3.30;99.90;;;;;;5051969;28;20037;-76
2024/03/04 07:04:20;;;;;;;62.13;58.27;;;3.30;99.90;;;;;;5051825;28;20037;-75
2024/03/04 07:06:46;;;;;;;67.27;63.20;;;3.30;99.90;;;;;;5052343;28;20044;-75
2024/03/04 07:09:12;;;;;;;63.67;59.27;;;3.30;99.90;;;;;;5034463;28;20041;-75
2024/03/04 07:11:38;;;;;;;59.37;55.50;;;3.30;99.90;;;;;;5050545;28;20036;-75
2024/03/04 07:14:04;;;;;;;53.10;49.67;;;3.30;99.90;;;;;;5051294;28;20479;-75
2024/03/04 07:16:30;;;;;;;49.87;46.40;;;3.40;99.90;;;;;;5051777;28;20040;-76
2024/03/04 07:18:57;;;;;;;56.57;53.00;;;3.40;99.90;;;;;;5051964;28;20039;-75
2024/03/04 07:21:23;;;;;;;45.13;41.83;;;3.50;99.90;;;;;;5047335;28;20375;-75
2024/03/04 07:23:49;;;;;;;49.10;46.20;;;3.50;99.90;;;;;;5033248;28;20036;-75
2024/03/04 07:26:16;;;;;;;44.80;41.97;;;3.60;99.90;;;;;;5040474;28;20080;-75
2024/03/04 07:28:43;;;;;;;51.23;47.87;;;3.50;99.90;;;;;;5052175;28;20025;-75
2024/03/04 07:31:12;;;;;;;48.97;45.87;;;3.50;99.90;;;;;;5042287;28;20045;-75
2024/03/04 07:33:38;;;;;;;41.87;39.13;;;3.70;99.90;;;;;;5049195;28;20385;-75
2024/03/04 07:36:04;;;;;;;72.57;67.97;;;3.70;99.90;;;;;;5046105;28;20029;-75
2024/03/04 07:38:30;;;;;;;59.60;55.37;;;3.70;99.90;;;;;;5049825;28;20033;-75
2024/03/04 07:40:57;;;;;;;54.30;50.83;;;3.80;99.90;;;;;;5036009;28;20040;-75
2024/03/04 07:43:23;;;;;;;60.93;56.90;;;3.90;99.90;;;;;;5031992;28;20053;-76
2024/03/04 07:45:49;;;;;;;68.73;63.87;;;4.10;99.90;;;;;;5036374;28;20029;-77
2024/03/04 07:48:16;;;;;;;52.67;49.27;;;4.10;99.90;;;;;;5041451;28;20033;-77
2024/03/04 07:50:42;;;;;;;73.40;68.77;;;4.40;99.90;;;;;;5035868;28;20467;-77
2024/03/04 07:53:08;;;;;;;56.53;52.53;;;4.60;99.90;;;;;;5038000;28;20061;-76
2024/03/04 07:55:34;;;;;;;58.97;55.00;;;4.90;99.90;;;;;;5041017;28;20029;-76
2024/03/04 07:58:00;;;;;;;162.13;152.93;;;5.10;99.90;;;;;;5031815;28;20360;-77
2024/03/04 08:00:26;;;;;;;104.50;98.77;;;5.20;99.90;;;;;;5033277;28;20042;-77
2024/03/04 08:02:52;;;;;;;144.57;136.40;;;5.20;99.90;;;;;;5051643;28;20045;-77
2024/03/04 08:05:18;;;;;;;145.50;137.23;;;5.30;99.90;;;;;;5048166;28;20032;-77
2024/03/04 08:07:44;;;;;;;92.77;86.93;;;5.30;99.90;;;;;;5050143;28;20032;-76
2024/03/04 08:10:13;;;;;;;65.27;61.10;;;5.60;99.90;;;;;;5051371;28;20411;-77
2024/03/04 08:12:39;;;;;;;55.73;52.10;;;5.80;99.90;;;;;;5043298;28;20044;-76
2024/03/04 08:15:05;;;;;;;79.73;74.93;;;5.90;99.90;;;;;;5050986;28;20043;-76
2024/03/04 08:17:32;;;;;;;70.23;66.17;;;5.90;99.90;;;;;;5033324;28;20026;-77
2024/03/04 08:19:59;;;;;;;83.07;78.20;;;5.90;99.90;;;;;;5035389;28;20381;-76
2024/03/04 08:22:25;;;;;;;131.73;124.17;;;6.00;99.90;;;;;;5035586;28;20483;-78
2024/03/04 08:24:51;;;;;;;127.80;121.03;;;6.20;99.90;;;;;;5036161;28;20041;-77
2024/03/04 08:27:19;;;;;;;111.77;104.93;;;6.30;99.90;;;;;;5052606;28;20029;-76
2024/03/04 08:29:46;;;;;;;106.77;100.87;;;6.40;99.90;;;;;;5054231;28;20044;-76
2024/03/04 08:32:12;;;;;;;97.60;92.05;;;6.40;99.90;;;;;;5048880;28;20048;-77
2024/03/04 08:34:38;;;;;;;93.93;88.40;;;6.40;99.90;;;;;;5045815;28;20053;-77
2024/03/04 08:37:04;;;;;;;98.90;93.13;;;6.50;99.90;;;;;;5042217;28;20392;-75
2024/03/04 08:39:31;;;;;;;166.77;152.25;;;6.70;99.90;;;;;;5040705;28;20056;-76
2024/03/04 08:41:57;;;;;;;178.88;168.88;;;7.00;99.90;;;;;;5042617;28;20472;-74
2024/03/04 08:44:24;;;;;;;121.13;114.37;;;7.20;99.90;;;;;;5049122;28;20044;-80
2024/03/04 08:46:50;;;;;;;164.20;155.43;;;7.40;99.90;;;;;;5047280;28;20033;-75
2024/03/04 08:49:16;;;;;;;165.85;156.93;;;7.50;99.90;;;;;;5047451;28;20036;-80
2024/03/04 08:51:42;;;;;;;101.45;95.13;;;7.70;99.90;;;;;;5035184;28;20052;-76
2024/03/04 08:54:08;;;;;;;152.75;144.30;;;7.70;99.90;;;;;;5044431;28;20419;-80
2024/03/04 08:56:35;;;;;;;116.90;109.80;;;7.80;99.90;;;;;;5041632;28;20041;-74
2024/03/04 08:59:01;;;;;;;114.30;107.55;;;7.80;99.90;;;;;;5035148;28;20046;-79
2024/03/04 09:01:27;;;;;;;157.38;148.82;;;7.90;99.90;;;;;;5043648;28;20037;-78
2024/03/04 09:03:53;;;;;;;92.25;86.78;;;7.90;99.90;;;;;;5048177;28;20032;-76
2024/03/04 09:06:20;;;;;;;117.55;110.75;;;7.90;99.90;;;;;;5053239;28;20040;-78
2024/03/04 09:08:47;;;;;;;108.82;102.75;;;7.80;99.90;;;;;;5053754;28;20033;-79
2024/03/04 09:11:13;;;;;;;114.93;107.72;;;7.90;99.90;;;;;;5054299;28;20398;-84
2024/03/04 09:13:39;;;;;;;162.13;153.20;;;8.00;99.90;;;;;;5035645;28;20045;-79
2024/03/04 09:16:06;;;;;;;140.55;132.35;;;8.00;99.90;;;;;;5043746;28;20038;-81
2024/03/04 09:18:33;;;;;;;153.93;145.27;;;8.00;99.90;;;;;;5033477;28;20029;-80
2024/03/04 09:21:00;;;;;;;149.82;141.15;;;8.10;99.90;;;;;;5037876;28;20025;-74
2024/03/04 09:23:26;;;;;;;181.63;171.52;;;8.10;99.90;;;;;;5045656;28;20044;-74
2024/03/04 09:25:52;;;;;;;136.75;129.25;;;8.20;99.90;;;;;;5018538;28;20038;-75
2024/03/04 09:28:19;;;;;;;165.00;155.88;;;8.30;99.90;;;;;;5032462;28;20030;-74
2024/03/04 09:30:46;;;;;;;92.60;86.88;;;8.40;99.90;;;;;;5037893;28;20438;-72
2024/03/04 09:33:12;;;;;;;152.55;144.52;;;8.40;99.90;;;;;;5052940;28;20032;-72
2024/03/04 09:35:38;;;;;;;133.27;126.13;;;8.50;99.90;;;;;;5052519;28;20044;-73
2024/03/04 09:38:04;;;;;;;1999.90;999.90;;;8.50;99.90;;;;;;5040561;28;20033;-74
2024/03/04 09:40:31;;;;;;;1999.90;999.90;;;8.70;99.90;;;;;;5036663;28;20045;-73
2024/03/04 09:42:57;;;;;;;1999.90;999.90;;;9.00;99.90;;;;;;5034446;28;20060;-73
2024/03/04 09:45:24;;;;;;;1999.90;999.90;;;9.20;99.90;;;;;;5038787;28;20506;-73
2024/03/04 09:47:52;;;;;;;189.05;178.02;;;9.40;99.90;;;;;;5046870;28;20028;-80
2024/03/04 09:50:19;;;;;;;1999.90;999.90;;;9.50;99.90;;;;;;5021000;28;20423;-75
2024/03/04 09:52:45;;;;;;;95.95;90.68;;;9.60;99.90;;;;;;5049716;28;20396;-78
2024/03/04 09:55:12;;;;;;;127.43;120.50;;;9.50;99.90;;;;;;5051748;28;20032;-79
2024/03/04 09:57:38;;;;;;;141.25;132.85;;;9.60;99.90;;;;;;5032532;28;20448;-76
2024/03/04 10:00:04;;;;;;;195.07;184.07;;;9.50;99.90;;;;;;5036080;28;20040;-77
2024/03/04 10:02:30;;;;;;;183.25;172.90;;;9.50;99.90;;;;;;5047590;28;20517;-78
2024/03/04 10:04:57;;;;;;;127.53;120.07;;;9.60;99.90;;;;;;5051737;28;20040;-81
2024/03/04 10:07:23;;;;;;;203.05;192.02;;;9.60;99.90;;;;;;5052381;28;20029;-78
2024/03/04 10:09:57;;;;;;;126.05;118.25;;;9.70;99.90;;;;;;5049453;28;20034;-74
2024/03/04 10:12:23;;;;;;;187.82;177.13;;;9.90;99.90;;;;;;5047455;28;20087;-74
2024/03/04 10:15:06;;;;;;;110.13;103.88;;;9.90;99.90;;;;;;5050712;28;20064;-75
2024/03/04 10:17:32;;;;;;;167.38;158.07;;;10.00;99.90;;;;;;5052380;28;20029;-75
2024/03/04 10:19:59;;;;;;;1060.40;557.17;;;10.00;99.90;;;;;;5047406;28;20029;-75
2024/03/04 10:22:35;;;;;;;222.60;209.90;;;10.10;99.90;;;;;;5051774;28;20036;-74
2024/03/04 10:25:11;;;;;;;106.22;100.18;;;10.10;99.90;;;;;;5047999;28;20030;-75
2024/03/04 10:27:39;;;;;;;214.00;202.60;;;10.10;99.90;;;;;;5052048;28;20025;-75
2024/03/04 10:30:10;;;;;;;1551.28;798.53;;;10.10;99.90;;;;;;5045789;28;20032;-75
2024/03/04 10:32:37;;;;;;;100.95;95.20;;;10.10;99.90;;;;;;5041274;28;20093;-77
2024/03/04 10:35:06;;;;;;;145.65;137.88;;;10.10;99.90;;;;;;5043219;28;20047;-75
2024/03/04 10:37:32;;;;;;;170.90;161.18;;;10.10;99.90;;;;;;5030407;28;20040;-76
2024/03/04 10:39:58;;;;;;;118.22;111.82;;;10.10;99.90;;;;;;5051262;28;20391;-76
2024/03/04 10:42:25;;;;;;;113.50;107.13;;;10.10;99.90;;;;;;5048012;28;20029;-75
2024/03/04 10:44:52;;;;;;;98.20;92.97;;;10.10;99.90;;;;;;5039911;28;20040;-75
2024/03/04 10:47:21;;;;;;;133.93;126.40;;;10.20;99.90;;;;;;5049576;28;20048;-76
2024/03/04 10:49:48;;;;;;;1084.10;579.30;;;10.10;99.90;;;;;;5052745;28;20486;-76
2024/03/04 10:52:14;;;;;;;125.15;118.32;;;10.20;99.90;;;;;;5049659;28;20033;-81
2024/03/04 10:54:41;;;;;;;167.73;158.57;;;10.20;99.90;;;;;;5031575;28;20053;-78
2024/03/04 10:57:09;;;;;;;86.95;81.97;;;10.30;99.90;;;;;;5047025;28;20364;-85
2024/03/04 10:59:38;;;;;;;1554.57;801.58;;;10.30;99.90;;;;;;5051573;28;20028;-85
2024/03/04 11:02:14;;;;;;;1999.90;999.90;;;10.30;99.90;;;;;;5051567;28;20403;-84
2024/03/04 11:04:43;;;;;;;140.70;132.50;;;10.40;99.90;;;;;;5050245;28;20033;-84
2024/03/04 11:07:11;;;;;;;1999.90;999.90;;;10.50;99.90;;;;;;5042061;28;20029;-84
2024/03/04 11:09:43;;;;;;;1999.90;999.90;;;10.50;99.90;;;;;;5048668;28;20024;-82
2024/03/04 11:12:09;;;;;;;1999.90;999.90;;;10.60;99.90;;;;;;5038868;28;20030;-83
2024/03/04 11:14:38;;;;;;;1999.90;999.90;;;10.70;99.90;;;;;;5031395;28;20384;-84
2024/03/04 11:17:13;;;;;;;1999.90;999.90;;;10.90;99.90;;;;;;5046146;28;20040;-84
2024/03/04 11:19:55;;;;;;;1999.90;999.90;;;11.00;99.90;;;;;;5037479;28;20403;-84
2024/03/04 11:22:21;;;;;;;1999.90;999.90;;;11.10;99.90;;;;;;5048929;28;20036;-83
2024/03/04 11:24:47;;;;;;;1999.90;999.90;;;11.10;99.90;;;;;;5051119;28;20021;-83
2024/03/04 11:27:15;;;;;;;1999.90;999.90;;;11.00;99.90;;;;;;5043641;28;20025;-81
2024/03/04 11:29:41;;;;;;;1999.90;999.90;;;11.10;99.90;;;;;;5043517;28;20025;-82
2024/03/04 11:32:11;;;;;;;1999.90;999.90;;;11.00;99.90;;;;;;5047255;28;20514;-83
2024/03/04 11:34:56;;;;;;;1999.90;999.90;;;11.10;99.90;;;;;;5051366;28;20040;-83
2024/03/04 11:37:29;;;;;;;1999.90;999.90;;;11.10;99.90;;;;;;5040926;28;20032;-84
2024/03/04 11:39:55;;;;;;;1999.90;999.90;;;11.20;99.90;;;;;;5047838;28;20029;-81
2024/03/04 11:42:44;;;;;;;1999.90;999.90;;;10.90;99.90;;;;;;5048914;28;20035;-81
2024/03/04 11:45:14;;;;;;;1999.90;999.90;;;11.00;99.90;;;;;;5050764;28;20025;-81
2024/03/04 11:47:41;;;;;;;1999.90;999.90;;;11.10;99.90;;;;;;5036882;28;20025;-83
2024/03/04 11:50:08;;;;;;;1999.90;999.90;;;11.30;99.90;;;;;;5030019;28;20105;-83
2024/03/04 11:52:35;;;;;;;1999.90;999.90;;;11.30;99.90;;;;;;5046605;28;20034;-81
2024/03/04 11:55:01;;;;;;;1999.90;999.90;;;11.20;99.90;;;;;;5040090;28;20041;-81
2024/03/04 11:57:27;;;;;;;1999.90;999.90;;;11.20;99.90;;;;;;5053046;28;20391;-82
2024/03/04 11:59:57;;;;;;;1999.90;999.90;;;11.30;99.90;;;;;;5054299;28;20033;-80
2024/03/04 12:02:23;;;;;;;1999.90;999.90;;;11.30;99.90;;;;;;5054576;28;20399;-80
2024/03/04 12:04:50;;;;;;;1999.90;999.90;;;11.30;99.90;;;;;;5054797;28;20033;-77
2024/03/04 12:07:16;;;;;;;1999.90;999.90;;;11.20;99.90;;;;;;5051436;28;20499;-84
2024/03/04 12:09:42;;;;;;;1999.90;999.90;;;11.20;99.90;;;;;;5051545;28;20036;-78
2024/03/04 12:12:11;;;;;;;1999.90;999.90;;;11.30;99.90;;;;;;5054735;28;20395;-79
2024/03/04 12:14:37;;;;;;;1999.90;999.90;;;11.30;99.90;;;;;;5052405;28;20052;-79
2024/03/04 12:17:04;;;;;;;1999.90;999.90;;;11.30;99.90;;;;;;5050146;28;20033;-79
2024/03/04 12:19:30;;;;;;;1999.90;999.90;;;11.30;99.90;;;;;;5035357;28;20399;-80
2024/03/04 12:21:56;;;;;;;1999.90;999.90;;;11.30;99.90;;;;;;5049313;28;20033;-79